createdAt,value
2023-03-11T00:00:33.502Z,74.40
2023-03-11T00:03:03.242Z,74.80
2023-03-11T00:05:34.925Z,73.90
2023-03-11T00:08:04.180Z,73.70
2023-03-11T00:10:34.175Z,73.60
2023-03-11T00:13:03.018Z,73.50
2023-03-11T00:15:31.925Z,73.10
2023-03-11T00:18:00.426Z,72.80
2023-03-11T00:20:30.779Z,72.60
2023-03-11T00:23:01.333Z,72.60
2023-03-11T00:25:32.615Z,72.50
2023-03-11T00:28:01.806Z,72.30
2023-03-11T00:30:30.555Z,72.10
2023-03-11T00:33:00.116Z,72.20
2023-03-11T00:35:30.829Z,72.20
2023-03-11T00:38:02.494Z,71.80
2023-03-11T00:40:32.425Z,71.50
2023-03-11T00:43:01.097Z,71.30
2023-03-11T00:45:30.226Z,71.30
2023-03-11T00:47:58.984Z,71.30
2023-03-11T00:50:29.918Z,71.30
2023-03-11T00:53:00.401Z,71.90
2023-03-11T00:55:30.437Z,71.40
2023-03-11T00:58:00.897Z,71.70
2023-03-11T01:00:30.354Z,71.80
2023-03-11T01:02:59.047Z,72.00
2023-03-11T01:05:30.995Z,72.10
2023-03-11T01:08:01.167Z,72.10
2023-03-11T01:10:30.679Z,72.00
2023-03-11T01:12:59.246Z,71.90
2023-03-11T01:15:29.661Z,71.70
2023-03-11T01:17:58.201Z,71.70
2023-03-11T01:20:26.410Z,71.70
2023-03-11T01:22:54.856Z,71.70
2023-03-11T01:25:25.854Z,71.60
2023-03-11T01:27:54.130Z,71.50
2023-03-11T01:30:23.924Z,71.20
2023-03-11T01:32:53.262Z,71.00
2023-03-11T01:35:23.892Z,70.80
2023-03-11T01:37:52.434Z,70.60
2023-03-11T01:40:24.505Z,70.60
2023-03-11T01:42:54.337Z,70.50
2023-03-11T01:45:39.478Z,70.60
2023-03-11T01:48:08.788Z,70.40
2023-03-11T01:50:40.467Z,70.30
2023-03-11T01:53:09.329Z,70.10
2023-03-11T01:55:37.942Z,70.10
2023-03-11T01:58:10.147Z,70.20
2023-03-11T02:00:39.038Z,69.70
2023-03-11T02:03:12.776Z,69.60
2023-03-11T02:05:41.969Z,69.40
2023-03-11T02:08:10.265Z,69.40
2023-03-11T02:10:41.781Z,69.40
2023-03-11T02:13:11.736Z,69.40
2023-03-11T02:15:40.701Z,69.20
2023-03-11T02:18:10.526Z,69.10
2023-03-11T02:20:46.317Z,69.10
2023-03-11T02:23:15.956Z,69.00
2023-03-11T02:25:52.023Z,68.80
2023-03-11T02:28:23.000Z,68.80
2023-03-11T02:30:53.171Z,68.70
2023-03-11T02:33:21.388Z,68.70
2023-03-11T02:35:50.110Z,68.50
2023-03-11T02:38:18.236Z,68.40
2023-03-11T02:40:51.864Z,68.20
2023-03-11T02:43:26.736Z,68.00
2023-03-11T02:45:55.586Z,67.80
2023-03-11T02:48:24.577Z,67.80
2023-03-11T02:50:53.841Z,67.70
2023-03-11T02:53:22.092Z,67.70
2023-03-11T02:55:53.307Z,67.60
2023-03-11T02:58:22.955Z,67.50
2023-03-11T03:00:51.187Z,67.40
2023-03-11T03:03:19.473Z,67.20
2023-03-11T03:05:47.666Z,67.10
2023-03-11T03:08:15.859Z,67.10
2023-03-11T03:10:44.018Z,67.20
2023-03-11T03:13:12.337Z,67.20
2023-03-11T03:15:42.248Z,66.90
2023-03-11T03:18:10.702Z,66.70
2023-03-11T03:20:38.930Z,66.70
2023-03-11T03:23:07.164Z,66.70
2023-03-11T03:25:35.352Z,66.50
2023-03-11T03:28:03.722Z,66.40
2023-03-11T03:30:31.968Z,66.50
2023-03-11T03:33:01.772Z,66.40
2023-03-11T03:35:30.038Z,66.30
2023-03-11T03:37:58.176Z,66.20
2023-03-11T03:40:27.038Z,66.00
2023-03-11T03:42:55.390Z,65.80
2023-03-11T03:45:23.574Z,65.80
2023-03-11T03:47:51.799Z,65.70
2023-03-11T03:50:21.360Z,65.60
2023-03-11T03:52:49.534Z,65.60
2023-03-11T03:55:17.872Z,65.40
2023-03-11T03:57:46.090Z,65.20
2023-03-11T04:00:15.802Z,65.10
2023-03-11T04:02:43.974Z,65.00
2023-03-11T04:05:12.217Z,65.10
2023-03-11T04:07:41.930Z,65.00
2023-03-11T04:10:11.051Z,65.10
2023-03-11T04:12:39.695Z,65.00
2023-03-11T04:15:09.457Z,64.90
2023-03-11T04:17:37.990Z,64.90
2023-03-11T04:20:09.120Z,64.80
2023-03-11T04:22:37.634Z,64.60
2023-03-11T04:25:08.625Z,64.70
2023-03-11T04:27:38.358Z,64.70
2023-03-11T04:30:07.976Z,64.80
2023-03-11T04:32:36.629Z,64.90
2023-03-11T04:35:05.142Z,65.00
2023-03-11T04:37:33.735Z,64.90
2023-03-11T04:40:01.933Z,64.70
2023-03-11T04:42:31.454Z,64.90
2023-03-11T04:44:59.669Z,65.00
2023-03-11T04:47:28.033Z,65.00
2023-03-11T04:49:56.269Z,65.00
2023-03-11T04:52:24.545Z,65.00
2023-03-11T04:54:52.926Z,65.20
2023-03-11T04:57:21.573Z,65.10
2023-03-11T04:59:51.078Z,65.10
2023-03-11T05:02:19.199Z,65.10
2023-03-11T05:04:47.688Z,65.30
2023-03-11T05:07:15.937Z,65.20
2023-03-11T05:09:44.589Z,65.30
2023-03-11T05:12:13.536Z,65.30
2023-03-11T05:14:41.933Z,65.40
2023-03-11T05:17:12.136Z,65.30
2023-03-11T05:19:40.597Z,65.50
2023-03-11T05:22:09.039Z,65.50
2023-03-11T05:24:37.570Z,65.50
2023-03-11T05:27:06.500Z,65.40
2023-03-11T05:29:35.010Z,65.40
2023-03-11T05:32:03.171Z,65.20
2023-03-11T05:34:33.090Z,65.30
2023-03-11T05:37:03.193Z,65.40
2023-03-11T05:39:31.675Z,65.30
2023-03-11T05:41:59.801Z,65.10
2023-03-11T05:44:27.956Z,65.20
2023-03-11T05:46:56.287Z,65.20
2023-03-11T05:49:24.642Z,65.10
2023-03-11T05:51:56.086Z,65.10
2023-03-11T05:54:25.952Z,65.10
2023-03-11T05:56:54.167Z,65.00
2023-03-11T05:59:23.244Z,64.90
2023-03-11T06:01:51.421Z,64.90
2023-03-11T06:04:19.744Z,64.90
2023-03-11T06:06:48.017Z,64.90
2023-03-11T06:09:17.744Z,64.80
2023-03-11T06:11:45.922Z,64.60
2023-03-11T06:14:15.907Z,64.60
2023-03-11T06:16:44.100Z,64.60
2023-03-11T06:19:12.603Z,64.70
2023-03-11T06:21:41.008Z,64.80
2023-03-11T06:24:09.496Z,64.80
2023-03-11T06:26:38.971Z,64.80
2023-03-11T06:29:12.585Z,64.80
2023-03-11T06:31:41.717Z,64.80
2023-03-11T06:34:11.653Z,64.80
2023-03-11T06:36:40.055Z,64.70
2023-03-11T06:39:09.352Z,64.70
2023-03-11T06:41:38.908Z,64.60
2023-03-11T06:44:07.189Z,64.60
2023-03-11T06:46:35.974Z,64.50
2023-03-11T06:49:04.504Z,64.30
2023-03-11T06:51:32.741Z,64.30
2023-03-11T06:54:01.296Z,64.10
2023-03-11T06:56:29.506Z,64.10
2023-03-11T06:58:59.532Z,64.00
2023-03-11T07:01:28.704Z,64.10
2023-03-11T07:03:57.054Z,63.90
2023-03-11T07:06:27.237Z,63.90
2023-03-11T07:08:55.848Z,64.10
2023-03-11T07:11:25.647Z,64.00
2023-03-11T07:13:54.499Z,63.90
2023-03-11T07:16:25.784Z,63.90
2023-03-11T07:18:56.597Z,63.90
2023-03-11T07:21:25.321Z,63.90
2023-03-11T07:23:55.051Z,63.80
2023-03-11T07:26:24.304Z,63.70
2023-03-11T07:28:53.111Z,63.80
2023-03-11T07:31:25.073Z,64.00
2023-03-11T07:33:53.847Z,64.00
2023-03-11T07:36:24.187Z,64.00
2023-03-11T07:38:58.314Z,64.00
2023-03-11T07:41:27.249Z,63.80
2023-03-11T07:43:56.758Z,63.80
2023-03-11T07:46:27.966Z,63.50
2023-03-11T07:48:56.958Z,63.40
2023-03-11T07:51:27.286Z,63.20
2023-03-11T07:53:56.851Z,63.00
2023-03-11T07:56:27.122Z,62.90
2023-03-11T07:58:56.123Z,62.70
2023-03-11T08:01:27.662Z,62.80
2023-03-11T08:03:58.557Z,62.80
2023-03-11T08:06:29.135Z,62.70
2023-03-11T08:08:57.345Z,62.60
2023-03-11T08:11:26.117Z,62.40
2023-03-11T08:13:55.128Z,62.30
2023-03-11T08:16:23.672Z,62.40
2023-03-11T08:18:54.277Z,62.30
2023-03-11T08:21:27.171Z,62.30
2023-03-11T08:23:58.653Z,62.00
2023-03-11T08:26:27.008Z,61.70
2023-03-11T08:28:56.320Z,61.50
2023-03-11T08:31:26.400Z,61.40
2023-03-11T08:33:58.830Z,61.30
2023-03-11T08:36:27.557Z,61.20
2023-03-11T08:38:56.010Z,61.00
2023-03-11T08:41:24.838Z,60.50
2023-03-11T08:43:53.208Z,60.10
2023-03-11T08:46:25.043Z,59.80
2023-03-11T08:48:54.514Z,59.70
2023-03-11T08:51:25.321Z,59.40
2023-03-11T08:53:54.487Z,59.20
2023-03-11T08:56:22.639Z,59.00
2023-03-11T08:58:50.997Z,58.70
2023-03-11T09:01:20.420Z,58.70
2023-03-11T09:03:48.662Z,58.50
2023-03-11T09:06:17.969Z,58.50
2023-03-11T09:08:49.326Z,58.50
2023-03-11T09:11:18.176Z,58.30
2023-03-11T09:13:46.771Z,58.00
2023-03-11T09:16:16.716Z,57.80
2023-03-11T09:18:45.174Z,57.80
2023-03-11T09:21:13.763Z,57.80
2023-03-11T09:23:44.341Z,57.70
2023-03-11T09:26:14.734Z,57.40
2023-03-11T09:28:46.953Z,56.60
2023-03-11T09:31:15.688Z,56.30
2023-03-11T09:33:44.435Z,56.00
2023-03-11T09:36:15.161Z,55.70
2023-03-11T09:38:43.722Z,55.40
2023-03-11T09:41:27.105Z,55.10
2023-03-11T09:44:11.146Z,54.20
2023-03-11T09:47:13.744Z,53.70
2023-03-11T09:49:53.822Z,53.50
2023-03-11T09:52:31.115Z,53.60
2023-03-11T09:55:02.172Z,53.60
2023-03-11T09:57:35.314Z,53.40
2023-03-11T10:00:05.701Z,52.60
2023-03-11T10:02:37.367Z,51.90
2023-03-11T10:05:13.950Z,51.50
2023-03-11T10:07:44.886Z,51.20
2023-03-11T10:10:15.131Z,50.80
2023-03-11T10:12:57.749Z,50.60
2023-03-11T10:15:48.136Z,50.10
2023-03-11T10:18:41.746Z,49.70
2023-03-11T10:21:19.625Z,49.90
2023-03-11T10:24:03.172Z,50.20
2023-03-11T10:26:37.048Z,50.20
2023-03-11T10:29:16.248Z,50.00
2023-03-11T10:31:48.763Z,50.00
2023-03-11T10:34:22.777Z,50.00
2023-03-11T10:36:59.799Z,49.80
2023-03-11T10:39:28.690Z,49.60
2023-03-11T10:42:00.315Z,49.70
2023-03-11T10:44:33.853Z,49.40
2023-03-11T10:47:02.702Z,49.30
2023-03-11T10:49:31.551Z,49.00
2023-03-11T10:52:00.087Z,48.70
2023-03-11T10:54:33.830Z,48.40
2023-03-11T10:57:03.666Z,48.40
2023-03-11T10:59:37.474Z,48.20
2023-03-11T11:02:23.468Z,48.10
2023-03-11T11:05:20.022Z,47.80
2023-03-11T11:07:49.506Z,47.60
2023-03-11T11:10:20.585Z,47.60
2023-03-11T11:12:57.613Z,47.40
2023-03-11T11:15:30.783Z,47.10
2023-03-11T11:18:01.586Z,46.90
2023-03-11T11:20:31.252Z,46.80
2023-03-11T11:23:01.165Z,46.50
2023-03-11T11:25:33.651Z,46.40
2023-03-11T11:28:05.173Z,46.30
2023-03-11T11:30:34.752Z,46.10
2023-03-11T11:33:24.350Z,45.90
2023-03-11T11:35:55.344Z,45.10
2023-03-11T11:38:25.315Z,45.40
2023-03-11T11:40:56.092Z,45.40
2023-03-11T11:43:36.986Z,45.30
2023-03-11T11:46:13.388Z,45.10
2023-03-11T11:48:48.581Z,45.00
2023-03-11T11:51:21.563Z,44.80
2023-03-11T11:53:55.369Z,44.80
2023-03-11T11:56:26.218Z,44.80
2023-03-11T11:58:55.303Z,45.00
2023-03-11T12:01:40.691Z,45.10
2023-03-11T12:04:33.892Z,44.80
2023-03-11T12:07:33.195Z,44.70
2023-03-11T12:10:22.155Z,44.70
2023-03-11T12:13:08.393Z,44.70
2023-03-11T12:15:42.089Z,44.60
2023-03-11T12:18:18.107Z,44.90
2023-03-11T12:20:50.253Z,44.90
2023-03-11T12:23:33.712Z,44.80
2023-03-11T12:26:19.597Z,44.50
2023-03-11T12:28:53.320Z,44.50
2023-03-11T12:31:24.345Z,45.30
2023-03-11T12:33:58.951Z,44.30
2023-03-11T12:36:31.952Z,44.20
2023-03-11T12:39:02.015Z,44.40
2023-03-11T12:41:38.660Z,44.10
2023-03-11T12:44:26.423Z,43.90
2023-03-11T12:47:27.245Z,43.90
2023-03-11T12:50:17.630Z,44.10
2023-03-11T12:52:56.047Z,44.30
2023-03-11T12:55:33.893Z,43.90
2023-03-11T12:58:34.811Z,43.80
2023-03-11T13:01:36.505Z,43.50
2023-03-11T13:04:22.079Z,43.10
2023-03-11T13:07:39.523Z,43.00
2023-03-11T13:10:21.445Z,42.70
2023-03-11T13:12:51.125Z,43.10
2023-03-11T13:15:46.717Z,43.10
2023-03-11T13:18:18.699Z,42.80
2023-03-11T13:20:55.933Z,43.00
2023-03-11T13:23:34.871Z,43.00
2023-03-11T13:26:30.232Z,43.00
2023-03-11T13:29:21.112Z,42.90
2023-03-11T13:32:14.191Z,42.90
2023-03-11T13:34:50.730Z,42.70
2023-03-11T13:37:28.860Z,42.80
2023-03-11T13:40:21.049Z,42.60
2023-03-11T13:42:51.550Z,42.60
2023-03-11T13:45:29.873Z,42.70
2023-03-11T13:48:01.545Z,42.30
2023-03-11T13:50:36.434Z,42.60
2023-03-11T13:53:09.760Z,42.90
2023-03-11T13:55:42.319Z,42.70
2023-03-11T13:58:18.344Z,42.40
2023-03-11T14:00:50.959Z,42.30
2023-03-11T14:03:22.834Z,42.60
2023-03-11T14:05:52.393Z,42.70
2023-03-11T14:08:24.192Z,41.60
2023-03-11T14:10:58.657Z,41.00
2023-03-11T14:13:30.246Z,40.90
2023-03-11T14:16:05.211Z,40.50
2023-03-11T14:18:39.055Z,40.30
2023-03-11T14:21:13.708Z,40.30
2023-03-11T14:23:43.556Z,39.90
2023-03-11T14:26:18.603Z,39.10
2023-03-11T14:28:49.648Z,38.90
2023-03-11T14:31:29.924Z,39.00
2023-03-11T14:34:04.240Z,38.20
2023-03-11T14:36:41.503Z,38.20
2023-03-11T14:39:27.407Z,37.80
2023-03-11T14:42:02.402Z,37.00
2023-03-11T14:44:32.716Z,37.30
2023-03-11T14:47:10.020Z,36.90
2023-03-11T14:49:39.313Z,36.10
2023-03-11T14:52:15.048Z,36.10
2023-03-11T14:54:44.824Z,35.50
2023-03-11T14:57:20.478Z,35.20
2023-03-11T14:59:51.722Z,34.90
2023-03-11T15:02:36.163Z,35.20
2023-03-11T15:05:10.889Z,34.30
2023-03-11T15:07:39.797Z,34.70
2023-03-11T15:10:10.569Z,34.20
2023-03-11T15:12:42.926Z,33.50
2023-03-11T15:15:24.195Z,33.90
2023-03-11T15:17:56.511Z,32.90
2023-03-11T15:20:27.355Z,33.30
2023-03-11T15:23:00.684Z,32.90
2023-03-11T15:25:31.242Z,32.70
2023-03-11T15:28:01.561Z,32.30
2023-03-11T15:30:32.017Z,32.40
2023-03-11T15:33:00.572Z,32.40
2023-03-11T15:35:29.709Z,32.40
2023-03-11T15:38:23.717Z,32.10
2023-03-11T15:40:54.605Z,31.40
2023-03-11T15:43:29.426Z,32.00
2023-03-11T15:45:58.933Z,32.00
2023-03-11T15:48:29.918Z,32.10
2023-03-11T15:51:01.572Z,32.10
2023-03-11T15:53:31.576Z,32.30
2023-03-11T15:56:11.506Z,32.40
2023-03-11T15:58:41.087Z,32.00
2023-03-11T16:01:10.445Z,32.00
2023-03-11T16:03:38.953Z,32.10
2023-03-11T16:06:07.610Z,32.30
2023-03-11T16:08:35.866Z,32.30
2023-03-11T16:11:04.104Z,32.30
2023-03-11T16:13:32.307Z,32.40
2023-03-11T16:16:04.243Z,32.70
2023-03-11T16:18:33.693Z,33.10
2023-03-11T16:21:04.702Z,33.30
2023-03-11T16:23:50.663Z,33.60
2023-03-11T16:26:20.334Z,33.90
2023-03-11T16:28:48.573Z,34.10
2023-03-11T16:31:18.358Z,35.00
2023-03-11T16:33:47.051Z,35.20
2023-03-11T16:36:15.390Z,35.50
2023-03-11T16:38:46.586Z,35.90
2023-03-11T16:41:15.216Z,36.20
2023-03-11T16:43:43.790Z,36.20
2023-03-11T16:46:12.162Z,36.20
2023-03-11T16:48:41.846Z,36.40
2023-03-11T16:51:10.433Z,36.50
2023-03-11T16:53:38.645Z,37.00
2023-03-11T16:56:07.749Z,36.90
2023-03-11T16:58:35.925Z,37.20
2023-03-11T17:01:04.264Z,37.60
2023-03-11T17:03:41.917Z,37.80
2023-03-11T17:06:11.916Z,38.00
2023-03-11T17:08:40.244Z,38.00
2023-03-11T17:11:15.728Z,38.10
2023-03-11T17:13:44.704Z,38.20
2023-03-11T17:16:13.767Z,38.30
2023-03-11T17:18:42.204Z,38.50
2023-03-11T17:21:13.058Z,38.60
2023-03-11T17:23:41.994Z,39.10
2023-03-11T17:26:11.742Z,39.40
2023-03-11T17:28:40.651Z,39.70
2023-03-11T17:31:12.715Z,40.30
2023-03-11T17:33:41.454Z,40.00
2023-03-11T17:36:15.909Z,40.30
2023-03-11T17:38:44.896Z,40.30
2023-03-11T17:41:19.132Z,40.50
2023-03-11T17:43:49.715Z,40.70
2023-03-11T17:46:20.357Z,41.10
2023-03-11T17:48:49.981Z,41.50
2023-03-11T17:51:22.217Z,41.80
2023-03-11T17:53:51.007Z,42.50
2023-03-11T17:56:21.313Z,42.10
2023-03-11T17:58:50.511Z,42.50
2023-03-11T18:01:21.390Z,42.90
2023-03-11T18:03:49.926Z,43.20
2023-03-11T18:06:21.659Z,43.40
2023-03-11T18:08:49.920Z,43.80
2023-03-11T18:11:20.444Z,43.60
2023-03-11T18:13:48.761Z,43.80
2023-03-11T18:16:19.956Z,44.00
2023-03-11T18:18:49.319Z,44.20
2023-03-11T18:21:20.868Z,44.50
2023-03-11T18:23:49.165Z,44.70
2023-03-11T18:26:19.037Z,45.00
2023-03-11T18:28:47.555Z,45.10
2023-03-11T18:31:17.309Z,45.00
2023-03-11T18:33:49.708Z,45.10
2023-03-11T18:36:21.026Z,45.40
2023-03-11T18:38:50.496Z,45.60
2023-03-11T18:41:18.937Z,45.60
2023-03-11T18:43:47.174Z,45.60
2023-03-11T18:46:17.180Z,45.70
2023-03-11T18:48:45.364Z,45.80
2023-03-11T18:51:14.162Z,46.00
2023-03-11T18:53:43.704Z,46.40
2023-03-11T18:56:13.627Z,46.70
2023-03-11T18:58:41.890Z,46.90
2023-03-11T19:01:12.278Z,47.10
2023-03-11T19:03:41.129Z,47.00
2023-03-11T19:06:09.920Z,47.00
2023-03-11T19:08:38.184Z,47.10
2023-03-11T19:11:08.844Z,47.00
2023-03-11T19:13:46.528Z,47.20
2023-03-11T19:16:16.079Z,47.20
2023-03-11T19:18:44.278Z,47.30
2023-03-11T19:21:14.722Z,47.20
2023-03-11T19:23:42.876Z,47.30
2023-03-11T19:26:12.753Z,47.40
2023-03-11T19:28:41.042Z,47.40
2023-03-11T19:31:09.412Z,47.60
2023-03-11T19:33:37.703Z,47.80
2023-03-11T19:36:08.347Z,47.90
2023-03-11T19:38:36.874Z,48.00
2023-03-11T19:41:07.386Z,48.10
2023-03-11T19:43:37.820Z,48.30
2023-03-11T19:46:07.854Z,48.40
2023-03-11T19:48:36.225Z,48.50
2023-03-11T19:51:07.623Z,48.50
2023-03-11T19:53:37.106Z,48.60
2023-03-11T19:56:06.692Z,48.60
2023-03-11T19:58:37.122Z,48.70
2023-03-11T20:01:05.760Z,48.80
2023-03-11T20:03:34.200Z,49.00
2023-03-11T20:06:06.411Z,49.10
2023-03-11T20:08:37.213Z,49.10
2023-03-11T20:11:06.565Z,49.10
2023-03-11T20:13:38.046Z,49.10
2023-03-11T20:16:08.242Z,49.10
2023-03-11T20:18:36.718Z,49.10
2023-03-11T20:21:09.697Z,49.20
2023-03-11T20:23:38.495Z,49.30
2023-03-11T20:26:08.446Z,49.40
2023-03-11T20:28:38.482Z,49.60
2023-03-11T20:31:12.741Z,49.70
2023-03-11T20:33:41.313Z,49.80
2023-03-11T20:36:14.432Z,49.80
2023-03-11T20:38:45.090Z,49.80
2023-03-11T20:41:13.449Z,50.00
2023-03-11T20:43:43.768Z,50.20
2023-03-11T20:46:13.542Z,50.10
2023-03-11T20:48:43.975Z,50.40
2023-03-11T20:51:14.979Z,50.50
2023-03-11T20:53:43.816Z,50.60
2023-03-11T20:56:14.570Z,50.80
2023-03-11T20:58:45.670Z,50.90
2023-03-11T21:01:15.686Z,51.10
2023-03-11T21:03:44.878Z,51.20
2023-03-11T21:06:18.714Z,51.30
2023-03-11T21:08:47.413Z,51.50
2023-03-11T21:11:18.547Z,51.60
2023-03-11T21:13:48.375Z,51.80
2023-03-11T21:16:16.929Z,51.90
2023-03-11T21:18:49.169Z,52.10
2023-03-11T21:21:19.015Z,52.10
2023-03-11T21:23:49.536Z,52.20
2023-03-11T21:26:19.266Z,52.40
2023-03-11T21:28:48.771Z,52.50
2023-03-11T21:31:19.184Z,52.60
2023-03-11T21:33:48.204Z,52.80
2023-03-11T21:36:17.535Z,53.00
2023-03-11T21:38:46.047Z,53.10
2023-03-11T21:41:16.559Z,53.20
2023-03-11T21:43:45.412Z,53.30
2023-03-11T21:46:17.810Z,53.50
2023-03-11T21:48:47.017Z,53.60
2023-03-11T21:51:16.552Z,53.60
2023-03-11T21:53:45.180Z,53.70
2023-03-11T21:56:14.168Z,53.70
2023-03-11T21:58:46.007Z,53.60
2023-03-11T22:01:17.847Z,53.60
2023-03-11T22:03:47.191Z,53.60
2023-03-11T22:06:15.916Z,53.60
2023-03-11T22:08:44.291Z,53.70
2023-03-11T22:11:17.677Z,53.70
2023-03-11T22:13:47.223Z,53.70
2023-03-11T22:16:16.968Z,53.70
2023-03-11T22:18:48.794Z,53.70
2023-03-11T22:21:18.569Z,53.70
2023-03-11T22:23:47.366Z,53.80
2023-03-11T22:26:19.523Z,53.70
2023-03-11T22:28:50.136Z,53.80
2023-03-11T22:31:22.509Z,53.70
2023-03-11T22:33:50.916Z,53.80
2023-03-11T22:36:19.109Z,53.80
2023-03-11T22:38:47.437Z,53.90
2023-03-11T22:41:19.153Z,53.90
2023-03-11T22:43:48.384Z,54.00
2023-03-11T22:46:16.715Z,54.00
2023-03-11T22:48:46.314Z,54.00
2023-03-11T22:51:14.868Z,54.10
2023-03-11T22:53:43.114Z,54.20
2023-03-11T22:56:14.325Z,54.20
2023-03-11T22:58:43.344Z,54.20
2023-03-11T23:01:12.427Z,54.20
2023-03-11T23:03:40.993Z,54.30
2023-03-11T23:06:13.456Z,54.30
2023-03-11T23:08:41.945Z,54.10
2023-03-11T23:11:13.044Z,54.00
2023-03-11T23:13:42.408Z,54.20
2023-03-11T23:16:14.074Z,54.20
2023-03-11T23:18:44.218Z,54.20
2023-03-11T23:21:19.785Z,54.20
2023-03-11T23:23:50.928Z,54.20
2023-03-11T23:26:23.110Z,54.20
2023-03-11T23:28:52.230Z,54.20
2023-03-11T23:31:22.892Z,54.20
2023-03-11T23:33:51.913Z,54.20
2023-03-11T23:36:25.743Z,54.20
2023-03-11T23:38:53.955Z,54.20
2023-03-11T23:41:23.824Z,54.10
2023-03-11T23:43:52.112Z,54.00
2023-03-11T23:46:22.692Z,54.00
2023-03-11T23:48:53.909Z,54.00
2023-03-11T23:51:23.649Z,54.00
2023-03-11T23:53:51.877Z,54.00
2023-03-11T23:56:20.525Z,53.90
2023-03-11T23:58:49.028Z,53.80
